sensor_id;sensor_type;location;lat;lon;timestamp;P1;durP1;ratioP1;P2;durP2;ratioP2
44228;SDS011;29904;51.058;5.378;2022-08-18T00:00:03;35.55;;;26.08;;
44228;SDS011;29904;51.058;5.378;2022-08-18T00:02:32;32.58;;;24.30;;
44228;SDS011;29904;51.058;5.378;2022-08-18T00:04:57;33.43;;;24.90;;
44228;SDS011;29904;51.058;5.378;2022-08-18T00:07:28;34.75;;;24.52;;
44228;SDS011;29904;51.058;5.378;2022-08-18T00:09:56;38.30;;;27.73;;
44228;SDS011;29904;51.058;5.378;2022-08-18T00:12:35;35.30;;;25.58;;
44228;SDS011;29904;51.058;5.378;2022-08-18T00:15:08;37.55;;;27.67;;
44228;SDS011;29904;51.058;5.378;2022-08-18T00:17:36;36.53;;;26.98;;
44228;SDS011;29904;51.058;5.378;2022-08-18T00:20:06;39.30;;;28.10;;
44228;SDS011;29904;51.058;5.378;2022-08-18T00:22:34;74.70;;;37.78;;
44228;SDS011;29904;51.058;5.378;2022-08-18T00:25:04;60.33;;;35.50;;
44228;SDS011;29904;51.058;5.378;2022-08-18T00:27:31;66.57;;;35.85;;
44228;SDS011;29904;51.058;5.378;2022-08-18T00:29:58;70.47;;;38.97;;
44228;SDS011;29904;51.058;5.378;2022-08-18T00:32:27;75.15;;;40.38;;
44228;SDS011;29904;51.058;5.378;2022-08-18T00:35:06;100.50;;;44.03;;
44228;SDS011;29904;51.058;5.378;2022-08-18T00:37:33;87.97;;;44.15;;
44228;SDS011;29904;51.058;5.378;2022-08-18T00:40:00;76.93;;;41.92;;
44228;SDS011;29904;51.058;5.378;2022-08-18T00:42:28;70.88;;;38.75;;
44228;SDS011;29904;51.058;5.378;2022-08-18T00:44:55;108.18;;;44.85;;
44228;SDS011;29904;51.058;5.378;2022-08-18T00:47:22;85.25;;;43.33;;
44228;SDS011;29904;51.058;5.378;2022-08-18T00:49:53;91.83;;;43.77;;
44228;SDS011;29904;51.058;5.378;2022-08-18T00:52:19;182.20;;;48.55;;
44228;SDS011;29904;51.058;5.378;2022-08-18T00:54:47;231.80;;;53.83;;
44228;SDS011;29904;51.058;5.378;2022-08-18T00:57:16;185.27;;;47.53;;
44228;SDS011;29904;51.058;5.378;2022-08-18T00:59:58;118.90;;;44.77;;
44228;SDS011;29904;51.058;5.378;2022-08-18T01:02:36;101.43;;;41.63;;
44228;SDS011;29904;51.058;5.378;2022-08-18T01:05:11;96.85;;;43.03;;
44228;SDS011;29904;51.058;5.378;2022-08-18T01:07:39;82.68;;;39.85;;
44228;SDS011;29904;51.058;5.378;2022-08-18T01:10:10;58.63;;;35.05;;
44228;SDS011;29904;51.058;5.378;2022-08-18T01:12:40;77.75;;;39.20;;
44228;SDS011;29904;51.058;5.378;2022-08-18T01:15:10;84.78;;;38.05;;
44228;SDS011;29904;51.058;5.378;2022-08-18T01:17:38;81.60;;;40.58;;
44228;SDS011;29904;51.058;5.378;2022-08-18T01:20:26;90.72;;;39.45;;
44228;SDS011;29904;51.058;5.378;2022-08-18T01:23:15;60.65;;;36.38;;
44228;SDS011;29904;51.058;5.378;2022-08-18T01:25:43;67.38;;;38.55;;
44228;SDS011;29904;51.058;5.378;2022-08-18T01:28:36;114.60;;;40.20;;
44228;SDS011;29904;51.058;5.378;2022-08-18T01:31:04;93.30;;;40.97;;
44228;SDS011;29904;51.058;5.378;2022-08-18T01:33:32;93.35;;;40.58;;
44228;SDS011;29904;51.058;5.378;2022-08-18T01:36:09;61.92;;;35.67;;
44228;SDS011;29904;51.058;5.378;2022-08-18T01:38:38;69.55;;;37.42;;
44228;SDS011;29904;51.058;5.378;2022-08-18T01:41:06;75.32;;;38.50;;
44228;SDS011;29904;51.058;5.378;2022-08-18T01:43:33;70.25;;;39.30;;
44228;SDS011;29904;51.058;5.378;2022-08-18T01:46:00;85.03;;;36.97;;
44228;SDS011;29904;51.058;5.378;2022-08-18T01:48:32;85.93;;;40.15;;
44228;SDS011;29904;51.058;5.378;2022-08-18T01:51:02;64.45;;;37.25;;
44228;SDS011;29904;51.058;5.378;2022-08-18T01:53:28;64.20;;;36.92;;
44228;SDS011;29904;51.058;5.378;2022-08-18T01:55:54;70.03;;;38.00;;
44228;SDS011;29904;51.058;5.378;2022-08-18T01:58:21;71.10;;;39.63;;
44228;SDS011;29904;51.058;5.378;2022-08-18T02:00:51;81.07;;;38.08;;
44228;SDS011;29904;51.058;5.378;2022-08-18T02:03:27;63.28;;;36.33;;
44228;SDS011;29904;51.058;5.378;2022-08-18T02:05:58;168.55;;;42.30;;
44228;SDS011;29904;51.058;5.378;2022-08-18T02:08:26;64.95;;;37.42;;
44228;SDS011;29904;51.058;5.378;2022-08-18T02:10:52;74.07;;;38.78;;
44228;SDS011;29904;51.058;5.378;2022-08-18T02:13:18;158.05;;;43.83;;
44228;SDS011;29904;51.058;5.378;2022-08-18T02:15:45;70.00;;;37.80;;
44228;SDS011;29904;51.058;5.378;2022-08-18T02:18:15;68.03;;;37.87;;
44228;SDS011;29904;51.058;5.378;2022-08-18T02:20:42;71.43;;;38.65;;
44228;SDS011;29904;51.058;5.378;2022-08-18T02:23:09;73.45;;;40.63;;
44228;SDS011;29904;51.058;5.378;2022-08-18T02:25:36;67.53;;;37.53;;
44228;SDS011;29904;51.058;5.378;2022-08-18T02:28:03;68.40;;;38.50;;
44228;SDS011;29904;51.058;5.378;2022-08-18T02:30:30;74.50;;;38.47;;
44228;SDS011;29904;51.058;5.378;2022-08-18T02:32:57;68.82;;;37.85;;
44228;SDS011;29904;51.058;5.378;2022-08-18T02:35:23;71.20;;;38.80;;
44228;SDS011;29904;51.058;5.378;2022-08-18T02:37:49;64.90;;;36.72;;
44228;SDS011;29904;51.058;5.378;2022-08-18T02:40:15;62.30;;;35.28;;
44228;SDS011;29904;51.058;5.378;2022-08-18T02:42:43;71.57;;;38.45;;
44228;SDS011;29904;51.058;5.378;2022-08-18T02:45:10;71.70;;;39.85;;
44228;SDS011;29904;51.058;5.378;2022-08-18T02:47:36;74.18;;;38.25;;
44228;SDS011;29904;51.058;5.378;2022-08-18T02:50:05;69.35;;;37.67;;
44228;SDS011;29904;51.058;5.378;2022-08-18T02:52:31;75.30;;;38.90;;
44228;SDS011;29904;51.058;5.378;2022-08-18T02:54:59;79.93;;;41.53;;
44228;SDS011;29904;51.058;5.378;2022-08-18T02:57:27;74.90;;;39.13;;
44228;SDS011;29904;51.058;5.378;2022-08-18T02:59:55;81.47;;;40.88;;
44228;SDS011;29904;51.058;5.378;2022-08-18T03:02:21;106.93;;;43.40;;
44228;SDS011;29904;51.058;5.378;2022-08-18T03:04:47;96.00;;;41.25;;
44228;SDS011;29904;51.058;5.378;2022-08-18T03:07:15;82.25;;;42.55;;
44228;SDS011;29904;51.058;5.378;2022-08-18T03:09:41;78.80;;;39.80;;
44228;SDS011;29904;51.058;5.378;2022-08-18T03:12:07;69.00;;;36.78;;
44228;SDS011;29904;51.058;5.378;2022-08-18T03:14:35;69.55;;;36.17;;
44228;SDS011;29904;51.058;5.378;2022-08-18T03:17:05;66.65;;;35.47;;
44228;SDS011;29904;51.058;5.378;2022-08-18T03:19:32;79.55;;;39.92;;
44228;SDS011;29904;51.058;5.378;2022-08-18T03:21:58;96.65;;;42.13;;
44228;SDS011;29904;51.058;5.378;2022-08-18T03:24:25;85.32;;;40.55;;
44228;SDS011;29904;51.058;5.378;2022-08-18T03:26:52;81.43;;;40.28;;
44228;SDS011;29904;51.058;5.378;2022-08-18T03:29:23;80.40;;;39.47;;
44228;SDS011;29904;51.058;5.378;2022-08-18T03:31:49;72.35;;;37.38;;
44228;SDS011;29904;51.058;5.378;2022-08-18T03:34:16;66.22;;;34.25;;
44228;SDS011;29904;51.058;5.378;2022-08-18T03:36:44;66.00;;;35.33;;
44228;SDS011;29904;51.058;5.378;2022-08-18T03:39:11;65.85;;;35.70;;
44228;SDS011;29904;51.058;5.378;2022-08-18T03:41:38;60.17;;;32.63;;
44228;SDS011;29904;51.058;5.378;2022-08-18T03:44:10;59.53;;;32.53;;
44228;SDS011;29904;51.058;5.378;2022-08-18T03:46:39;71.60;;;36.00;;
44228;SDS011;29904;51.058;5.378;2022-08-18T03:49:06;68.10;;;35.43;;
44228;SDS011;29904;51.058;5.378;2022-08-18T03:51:32;71.17;;;37.00;;
44228;SDS011;29904;51.058;5.378;2022-08-18T03:53:58;74.60;;;37.10;;
44228;SDS011;29904;51.058;5.378;2022-08-18T03:56:31;81.55;;;39.15;;
44228;SDS011;29904;51.058;5.378;2022-08-18T03:59:00;75.93;;;37.90;;
44228;SDS011;29904;51.058;5.378;2022-08-18T04:01:32;73.13;;;37.28;;
44228;SDS011;29904;51.058;5.378;2022-08-18T04:04:03;69.60;;;36.60;;
44228;SDS011;29904;51.058;5.378;2022-08-18T04:06:33;72.50;;;36.20;;
44228;SDS011;29904;51.058;5.378;2022-08-18T04:09:04;83.88;;;39.22;;
44228;SDS011;29904;51.058;5.378;2022-08-18T04:11:31;76.97;;;38.60;;
44228;SDS011;29904;51.058;5.378;2022-08-18T04:13:58;73.40;;;36.77;;
44228;SDS011;29904;51.058;5.378;2022-08-18T04:16:28;75.17;;;37.07;;
44228;SDS011;29904;51.058;5.378;2022-08-18T04:18:59;74.22;;;37.08;;
44228;SDS011;29904;51.058;5.378;2022-08-18T04:21:27;67.10;;;34.72;;
44228;SDS011;29904;51.058;5.378;2022-08-18T04:23:55;72.65;;;36.53;;
44228;SDS011;29904;51.058;5.378;2022-08-18T04:26:24;67.57;;;34.75;;
44228;SDS011;29904;51.058;5.378;2022-08-18T04:28:49;74.78;;;37.97;;
44228;SDS011;29904;51.058;5.378;2022-08-18T04:31:15;74.87;;;37.87;;
44228;SDS011;29904;51.058;5.378;2022-08-18T04:33:47;73.70;;;37.13;;
44228;SDS011;29904;51.058;5.378;2022-08-18T04:36:13;66.10;;;34.42;;
44228;SDS011;29904;51.058;5.378;2022-08-18T04:38:41;59.65;;;31.80;;
44228;SDS011;29904;51.058;5.378;2022-08-18T04:41:09;66.28;;;35.08;;
44228;SDS011;29904;51.058;5.378;2022-08-18T04:43:37;66.97;;;36.22;;
44228;SDS011;29904;51.058;5.378;2022-08-18T04:46:03;72.30;;;36.10;;
44228;SDS011;29904;51.058;5.378;2022-08-18T04:48:31;64.03;;;35.35;;
44228;SDS011;29904;51.058;5.378;2022-08-18T04:53:35;73.63;;;37.30;;
44228;SDS011;29904;51.058;5.378;2022-08-18T04:58:49;65.63;;;34.95;;
44228;SDS011;29904;51.058;5.378;2022-08-18T05:01:19;67.72;;;35.90;;
44228;SDS011;29904;51.058;5.378;2022-08-18T05:03:47;66.60;;;35.08;;
44228;SDS011;29904;51.058;5.378;2022-08-18T05:06:16;65.80;;;35.90;;
44228;SDS011;29904;51.058;5.378;2022-08-18T05:08:42;63.47;;;35.08;;
44228;SDS011;29904;51.058;5.378;2022-08-18T05:11:08;56.00;;;31.60;;
44228;SDS011;29904;51.058;5.378;2022-08-18T05:13:36;61.75;;;34.35;;
44228;SDS011;29904;51.058;5.378;2022-08-18T05:16:01;67.43;;;36.80;;
44228;SDS011;29904;51.058;5.378;2022-08-18T05:18:28;66.13;;;36.25;;
44228;SDS011;29904;51.058;5.378;2022-08-18T05:20:55;71.22;;;36.83;;
44228;SDS011;29904;51.058;5.378;2022-08-18T05:23:21;73.38;;;38.65;;
44228;SDS011;29904;51.058;5.378;2022-08-18T05:25:47;66.00;;;37.05;;
44228;SDS011;29904;51.058;5.378;2022-08-18T05:28:20;65.10;;;34.92;;
44228;SDS011;29904;51.058;5.378;2022-08-18T05:30:46;70.87;;;36.80;;
44228;SDS011;29904;51.058;5.378;2022-08-18T05:33:11;68.03;;;36.63;;
44228;SDS011;29904;51.058;5.378;2022-08-18T05:35:47;76.57;;;38.90;;
44228;SDS011;29904;51.058;5.378;2022-08-18T05:38:37;73.38;;;38.50;;
44228;SDS011;29904;51.058;5.378;2022-08-18T05:41:05;72.53;;;37.92;;
44228;SDS011;29904;51.058;5.378;2022-08-18T05:43:34;66.85;;;35.65;;
44228;SDS011;29904;51.058;5.378;2022-08-18T05:46:02;74.85;;;38.75;;
44228;SDS011;29904;51.058;5.378;2022-08-18T05:48:30;73.43;;;38.75;;
44228;SDS011;29904;51.058;5.378;2022-08-18T05:51:00;76.00;;;38.97;;
44228;SDS011;29904;51.058;5.378;2022-08-18T05:53:34;73.03;;;39.40;;
44228;SDS011;29904;51.058;5.378;2022-08-18T05:56:19;75.40;;;38.92;;
44228;SDS011;29904;51.058;5.378;2022-08-18T05:59:09;71.30;;;37.67;;
44228;SDS011;29904;51.058;5.378;2022-08-18T06:01:38;72.13;;;38.13;;
44228;SDS011;29904;51.058;5.378;2022-08-18T06:04:13;64.93;;;35.33;;
44228;SDS011;29904;51.058;5.378;2022-08-18T06:06:44;63.08;;;35.13;;
44228;SDS011;29904;51.058;5.378;2022-08-18T06:09:16;65.47;;;36.15;;
44228;SDS011;29904;51.058;5.378;2022-08-18T06:12:02;56.95;;;31.75;;
44228;SDS011;29904;51.058;5.378;2022-08-18T06:14:36;58.15;;;33.97;;
44228;SDS011;29904;51.058;5.378;2022-08-18T06:17:17;58.42;;;32.92;;
44228;SDS011;29904;51.058;5.378;2022-08-18T06:20:14;51.63;;;30.93;;
44228;SDS011;29904;51.058;5.378;2022-08-18T06:26:00;52.67;;;30.50;;
44228;SDS011;29904;51.058;5.378;2022-08-18T06:31:43;48.10;;;30.17;;
44228;SDS011;29904;51.058;5.378;2022-08-18T06:34:10;54.30;;;30.75;;
44228;SDS011;29904;51.058;5.378;2022-08-18T06:37:10;55.25;;;31.48;;
44228;SDS011;29904;51.058;5.378;2022-08-18T06:39:48;50.70;;;31.83;;
44228;SDS011;29904;51.058;5.378;2022-08-18T06:42:22;52.42;;;32.03;;
44228;SDS011;29904;51.058;5.378;2022-08-18T06:45:13;50.92;;;30.45;;
44228;SDS011;29904;51.058;5.378;2022-08-18T06:47:51;51.95;;;29.65;;
44228;SDS011;29904;51.058;5.378;2022-08-18T06:50:29;49.53;;;29.48;;
44228;SDS011;29904;51.058;5.378;2022-08-18T06:59:19;46.97;;;28.15;;
44228;SDS011;29904;51.058;5.378;2022-08-18T07:01:52;43.83;;;27.40;;
44228;SDS011;29904;51.058;5.378;2022-08-18T07:04:42;47.13;;;28.35;;
44228;SDS011;29904;51.058;5.378;2022-08-18T07:07:38;46.55;;;29.25;;
44228;SDS011;29904;51.058;5.378;2022-08-18T07:12:40;45.30;;;27.15;;
44228;SDS011;29904;51.058;5.378;2022-08-18T07:15:06;39.58;;;24.23;;
44228;SDS011;29904;51.058;5.378;2022-08-18T07:17:36;37.42;;;21.45;;
44228;SDS011;29904;51.058;5.378;2022-08-18T07:22:55;39.00;;;23.23;;
44228;SDS011;29904;51.058;5.378;2022-08-18T07:25:30;40.47;;;24.13;;
44228;SDS011;29904;51.058;5.378;2022-08-18T07:28:02;37.45;;;22.90;;
44228;SDS011;29904;51.058;5.378;2022-08-18T07:30:30;35.85;;;22.05;;
44228;SDS011;29904;51.058;5.378;2022-08-18T07:35:46;32.47;;;20.30;;
44228;SDS011;29904;51.058;5.378;2022-08-18T07:38:21;32.07;;;20.23;;
44228;SDS011;29904;51.058;5.378;2022-08-18T07:40:59;35.30;;;21.50;;
44228;SDS011;29904;51.058;5.378;2022-08-18T07:43:43;31.17;;;20.00;;
44228;SDS011;29904;51.058;5.378;2022-08-18T07:46:20;30.65;;;20.08;;
44228;SDS011;29904;51.058;5.378;2022-08-18T07:48:54;26.45;;;18.23;;
44228;SDS011;29904;51.058;5.378;2022-08-18T07:51:29;27.33;;;17.23;;
44228;SDS011;29904;51.058;5.378;2022-08-18T08:03:05;22.50;;;14.70;;
44228;SDS011;29904;51.058;5.378;2022-08-18T08:11:07;19.33;;;13.70;;
44228;SDS011;29904;51.058;5.378;2022-08-18T08:16:49;23.27;;;16.67;;
44228;SDS011;29904;51.058;5.378;2022-08-18T08:33:25;16.55;;;12.07;;
44228;SDS011;29904;51.058;5.378;2022-08-18T08:35:57;19.27;;;13.80;;
44228;SDS011;29904;51.058;5.378;2022-08-18T08:44:26;15.15;;;10.27;;
44228;SDS011;29904;51.058;5.378;2022-08-18T08:47:03;13.77;;;10.52;;
44228;SDS011;29904;51.058;5.378;2022-08-18T08:49:46;14.50;;;10.43;;
44228;SDS011;29904;51.058;5.378;2022-08-18T08:54:58;13.40;;;9.30;;
44228;SDS011;29904;51.058;5.378;2022-08-18T08:57:34;12.52;;;9.13;;
44228;SDS011;29904;51.058;5.378;2022-08-18T09:00:05;12.73;;;8.38;;
44228;SDS011;29904;51.058;5.378;2022-08-18T09:05:09;11.82;;;8.50;;
44228;SDS011;29904;51.058;5.378;2022-08-18T09:12:55;11.83;;;8.57;;
44228;SDS011;29904;51.058;5.378;2022-08-18T09:23:43;13.77;;;9.83;;
44228;SDS011;29904;51.058;5.378;2022-08-18T09:28:53;11.38;;;9.13;;
44228;SDS011;29904;51.058;5.378;2022-08-18T09:31:22;12.80;;;9.20;;
44228;SDS011;29904;51.058;5.378;2022-08-18T09:34:16;13.75;;;9.60;;
44228;SDS011;29904;51.058;5.378;2022-08-18T09:37:10;11.13;;;7.85;;
44228;SDS011;29904;51.058;5.378;2022-08-18T09:40:00;10.63;;;8.35;;
44228;SDS011;29904;51.058;5.378;2022-08-18T09:45:58;11.32;;;8.43;;
44228;SDS011;29904;51.058;5.378;2022-08-18T09:48:33;12.57;;;8.93;;
44228;SDS011;29904;51.058;5.378;2022-08-18T09:53:52;15.27;;;10.00;;
44228;SDS011;29904;51.058;5.378;2022-08-18T10:02:08;13.38;;;9.00;;
44228;SDS011;29904;51.058;5.378;2022-08-18T10:07:37;11.52;;;8.50;;
44228;SDS011;29904;51.058;5.378;2022-08-18T10:20:53;9.50;;;7.17;;
44228;SDS011;29904;51.058;5.378;2022-08-18T10:29:42;10.82;;;7.35;;
44228;SDS011;29904;51.058;5.378;2022-08-18T10:34:39;10.30;;;7.35;;
44228;SDS011;29904;51.058;5.378;2022-08-18T10:42:10;5.60;;;5.00;;
44228;SDS011;29904;51.058;5.378;2022-08-18T10:44:45;9.23;;;6.40;;
44228;SDS011;29904;51.058;5.378;2022-08-18T10:47:27;8.75;;;6.45;;
44228;SDS011;29904;51.058;5.378;2022-08-18T10:49:54;5.53;;;4.97;;
44228;SDS011;29904;51.058;5.378;2022-08-18T11:04:05;5.78;;;4.32;;
44228;SDS011;29904;51.058;5.378;2022-08-18T11:06:49;5.05;;;4.47;;
44228;SDS011;29904;51.058;5.378;2022-08-18T11:09:21;5.75;;;4.82;;
44228;SDS011;29904;51.058;5.378;2022-08-18T11:11:53;8.27;;;5.60;;
44228;SDS011;29904;51.058;5.378;2022-08-18T11:19:55;5.88;;;4.60;;
44228;SDS011;29904;51.058;5.378;2022-08-18T11:22:25;5.97;;;3.92;;
44228;SDS011;29904;51.058;5.378;2022-08-18T11:24:57;5.20;;;3.85;;
44228;SDS011;29904;51.058;5.378;2022-08-18T11:27:27;5.35;;;4.53;;
44228;SDS011;29904;51.058;5.378;2022-08-18T11:29:58;5.18;;;3.75;;
44228;SDS011;29904;51.058;5.378;2022-08-18T11:32:26;3.88;;;3.30;;
44228;SDS011;29904;51.058;5.378;2022-08-18T11:35:03;5.38;;;3.83;;
44228;SDS011;29904;51.058;5.378;2022-08-18T11:37:36;3.58;;;3.17;;
44228;SDS011;29904;51.058;5.378;2022-08-18T11:40:11;6.28;;;3.50;;
44228;SDS011;29904;51.058;5.378;2022-08-18T11:42:58;4.90;;;3.42;;
44228;SDS011;29904;51.058;5.378;2022-08-18T11:50:47;4.97;;;3.58;;
44228;SDS011;29904;51.058;5.378;2022-08-18T12:01:28;3.90;;;3.35;;
44228;SDS011;29904;51.058;5.378;2022-08-18T12:07:03;3.95;;;3.55;;
44228;SDS011;29904;51.058;5.378;2022-08-18T12:09:45;3.40;;;3.10;;
44228;SDS011;29904;51.058;5.378;2022-08-18T12:12:17;3.40;;;3.00;;
44228;SDS011;29904;51.058;5.378;2022-08-18T12:14:55;7.72;;;3.00;;
44228;SDS011;29904;51.058;5.378;2022-08-18T12:17:25;3.00;;;2.70;;
44228;SDS011;29904;51.058;5.378;2022-08-18T12:19:52;3.75;;;2.97;;
44228;SDS011;29904;51.058;5.378;2022-08-18T12:22:19;4.80;;;3.50;;
44228;SDS011;29904;51.058;5.378;2022-08-18T12:24:47;4.35;;;3.78;;
44228;SDS011;29904;51.058;5.378;2022-08-18T12:27:14;4.30;;;3.47;;
44228;SDS011;29904;51.058;5.378;2022-08-18T12:29:42;3.70;;;3.15;;
44228;SDS011;29904;51.058;5.378;2022-08-18T12:32:10;4.20;;;3.30;;
44228;SDS011;29904;51.058;5.378;2022-08-18T12:34:36;2.95;;;2.65;;
44228;SDS011;29904;51.058;5.378;2022-08-18T12:37:02;3.00;;;2.70;;
44228;SDS011;29904;51.058;5.378;2022-08-18T12:39:33;3.42;;;2.63;;
44228;SDS011;29904;51.058;5.378;2022-08-18T12:42:00;3.53;;;2.50;;
44228;SDS011;29904;51.058;5.378;2022-08-18T12:44:26;2.90;;;2.60;;
44228;SDS011;29904;51.058;5.378;2022-08-18T12:46:52;3.63;;;2.50;;
44228;SDS011;29904;51.058;5.378;2022-08-18T12:49:21;3.30;;;2.70;;
44228;SDS011;29904;51.058;5.378;2022-08-18T12:51:48;2.70;;;2.50;;
44228;SDS011;29904;51.058;5.378;2022-08-18T12:54:15;2.67;;;2.40;;
44228;SDS011;29904;51.058;5.378;2022-08-18T12:56:41;3.00;;;2.70;;
44228;SDS011;29904;51.058;5.378;2022-08-18T12:59:18;3.63;;;2.72;;
44228;SDS011;29904;51.058;5.378;2022-08-18T13:01:46;3.78;;;2.90;;
44228;SDS011;29904;51.058;5.378;2022-08-18T13:04:12;3.35;;;2.90;;
44228;SDS011;29904;51.058;5.378;2022-08-18T13:06:38;4.22;;;2.85;;
44228;SDS011;29904;51.058;5.378;2022-08-18T13:09:09;3.00;;;2.67;;
44228;SDS011;29904;51.058;5.378;2022-08-18T13:11:35;3.10;;;2.75;;
44228;SDS011;29904;51.058;5.378;2022-08-18T13:14:02;2.90;;;2.60;;
44228;SDS011;29904;51.058;5.378;2022-08-18T13:16:28;3.20;;;2.90;;
44228;SDS011;29904;51.058;5.378;2022-08-18T13:18:57;4.57;;;3.33;;
44228;SDS011;29904;51.058;5.378;2022-08-18T13:21:26;3.33;;;2.80;;
44228;SDS011;29904;51.058;5.378;2022-08-18T13:23:54;3.15;;;2.80;;
44228;SDS011;29904;51.058;5.378;2022-08-18T13:26:27;3.67;;;2.80;;
44228;SDS011;29904;51.058;5.378;2022-08-18T13:28:55;2.95;;;2.67;;
44228;SDS011;29904;51.058;5.378;2022-08-18T13:31:21;3.60;;;2.80;;
44228;SDS011;29904;51.058;5.378;2022-08-18T13:33:47;3.08;;;2.50;;
44228;SDS011;29904;51.058;5.378;2022-08-18T13:36:14;3.40;;;2.80;;
44228;SDS011;29904;51.058;5.378;2022-08-18T13:38:40;4.07;;;2.50;;
44228;SDS011;29904;51.058;5.378;2022-08-18T13:41:07;3.05;;;2.20;;
44228;SDS011;29904;51.058;5.378;2022-08-18T13:43:35;2.88;;;2.50;;
44228;SDS011;29904;51.058;5.378;2022-08-18T13:46:06;5.13;;;2.80;;
44228;SDS011;29904;51.058;5.378;2022-08-18T13:48:32;3.33;;;2.80;;
44228;SDS011;29904;51.058;5.378;2022-08-18T13:50:59;3.78;;;2.65;;
44228;SDS011;29904;51.058;5.378;2022-08-18T13:53:27;5.60;;;2.87;;
44228;SDS011;29904;51.058;5.378;2022-08-18T13:55:55;3.60;;;2.58;;
44228;SDS011;29904;51.058;5.378;2022-08-18T13:58:23;2.95;;;2.55;;
44228;SDS011;29904;51.058;5.378;2022-08-18T14:00:49;3.63;;;2.63;;
44228;SDS011;29904;51.058;5.378;2022-08-18T14:03:19;2.88;;;2.60;;
44228;SDS011;29904;51.058;5.378;2022-08-18T14:05:47;3.03;;;2.60;;
44228;SDS011;29904;51.058;5.378;2022-08-18T14:08:17;2.90;;;2.60;;
44228;SDS011;29904;51.058;5.378;2022-08-18T14:10:44;2.97;;;2.65;;
44228;SDS011;29904;51.058;5.378;2022-08-18T14:13:13;2.87;;;2.57;;
44228;SDS011;29904;51.058;5.378;2022-08-18T14:15:39;2.80;;;2.53;;
44228;SDS011;29904;51.058;5.378;2022-08-18T14:18:05;3.88;;;2.67;;
44228;SDS011;29904;51.058;5.378;2022-08-18T14:20:31;2.95;;;2.63;;
44228;SDS011;29904;51.058;5.378;2022-08-18T14:23:17;2.88;;;2.58;;
44228;SDS011;29904;51.058;5.378;2022-08-18T14:26:01;3.25;;;2.95;;
44228;SDS011;29904;51.058;5.378;2022-08-18T14:28:47;3.60;;;3.00;;
44228;SDS011;29904;51.058;5.378;2022-08-18T14:31:13;3.67;;;2.60;;
44228;SDS011;29904;51.058;5.378;2022-08-18T14:33:42;3.95;;;2.80;;
44228;SDS011;29904;51.058;5.378;2022-08-18T14:36:09;4.97;;;2.83;;
44228;SDS011;29904;51.058;5.378;2022-08-18T14:38:35;3.20;;;2.90;;
44228;SDS011;29904;51.058;5.378;2022-08-18T14:41:05;3.80;;;2.88;;
44228;SDS011;29904;51.058;5.378;2022-08-18T14:43:32;3.30;;;2.80;;
44228;SDS011;29904;51.058;5.378;2022-08-18T14:46:03;4.35;;;3.20;;
44228;SDS011;29904;51.058;5.378;2022-08-18T14:48:29;3.60;;;3.10;;
44228;SDS011;29904;51.058;5.378;2022-08-18T14:50:56;4.40;;;3.47;;
44228;SDS011;29904;51.058;5.378;2022-08-18T14:53:25;3.92;;;3.00;;
44228;SDS011;29904;51.058;5.378;2022-08-18T14:55:53;4.00;;;3.38;;
44228;SDS011;29904;51.058;5.378;2022-08-18T14:58:20;3.38;;;3.03;;
44228;SDS011;29904;51.058;5.378;2022-08-18T15:00:56;3.85;;;3.40;;
44228;SDS011;29904;51.058;5.378;2022-08-18T15:03:25;3.70;;;3.10;;
44228;SDS011;29904;51.058;5.378;2022-08-18T15:05:53;4.97;;;3.40;;
44228;SDS011;29904;51.058;5.378;2022-08-18T15:08:20;4.55;;;3.30;;
44228;SDS011;29904;51.058;5.378;2022-08-18T15:10:45;3.80;;;3.40;;
44228;SDS011;29904;51.058;5.378;2022-08-18T15:13:12;3.30;;;3.00;;
44228;SDS011;29904;51.058;5.378;2022-08-18T15:15:37;3.80;;;3.20;;
44228;SDS011;29904;51.058;5.378;2022-08-18T15:18:03;3.47;;;2.97;;
44228;SDS011;29904;51.058;5.378;2022-08-18T15:20:29;3.83;;;3.47;;
44228;SDS011;29904;51.058;5.378;2022-08-18T15:22:59;3.70;;;2.97;;
44228;SDS011;29904;51.058;5.378;2022-08-18T15:25:45;4.80;;;3.80;;
44228;SDS011;29904;51.058;5.378;2022-08-18T15:28:19;4.18;;;3.55;;
44228;SDS011;29904;51.058;5.378;2022-08-18T15:30:48;4.40;;;4.00;;
44228;SDS011;29904;51.058;5.378;2022-08-18T15:33:15;4.95;;;3.63;;
44228;SDS011;29904;51.058;5.378;2022-08-18T15:35:44;3.60;;;3.30;;
44228;SDS011;29904;51.058;5.378;2022-08-18T15:38:11;4.40;;;3.70;;
44228;SDS011;29904;51.058;5.378;2022-08-18T15:40:49;4.68;;;3.40;;
44228;SDS011;29904;51.058;5.378;2022-08-18T15:43:14;4.30;;;3.53;;
44228;SDS011;29904;51.058;5.378;2022-08-18T15:45:43;6.28;;;3.70;;
44228;SDS011;29904;51.058;5.378;2022-08-18T15:48:12;6.85;;;3.30;;
44228;SDS011;29904;51.058;5.378;2022-08-18T15:50:39;4.35;;;3.00;;
44228;SDS011;29904;51.058;5.378;2022-08-18T15:53:05;4.70;;;3.50;;
44228;SDS011;29904;51.058;5.378;2022-08-18T15:55:32;4.28;;;3.70;;
44228;SDS011;29904;51.058;5.378;2022-08-18T15:57:59;4.20;;;3.80;;
44228;SDS011;29904;51.058;5.378;2022-08-18T16:00:26;3.90;;;3.60;;
44228;SDS011;29904;51.058;5.378;2022-08-18T16:02:55;3.88;;;3.50;;
44228;SDS011;29904;51.058;5.378;2022-08-18T16:05:27;4.00;;;3.60;;
44228;SDS011;29904;51.058;5.378;2022-08-18T16:08:17;3.63;;;3.22;;
44228;SDS011;29904;51.058;5.378;2022-08-18T16:10:44;4.18;;;2.92;;
44228;SDS011;29904;51.058;5.378;2022-08-18T16:13:10;4.23;;;3.67;;
44228;SDS011;29904;51.058;5.378;2022-08-18T16:15:39;3.63;;;3.13;;
44228;SDS011;29904;51.058;5.378;2022-08-18T16:18:07;4.18;;;3.70;;
44228;SDS011;29904;51.058;5.378;2022-08-18T16:20:35;4.45;;;3.42;;
44228;SDS011;29904;51.058;5.378;2022-08-18T16:23:01;3.63;;;3.33;;
44228;SDS011;29904;51.058;5.378;2022-08-18T16:25:27;4.00;;;3.30;;
44228;SDS011;29904;51.058;5.378;2022-08-18T16:27:54;5.65;;;3.92;;
44228;SDS011;29904;51.058;5.378;2022-08-18T16:30:23;3.60;;;3.30;;
44228;SDS011;29904;51.058;5.378;2022-08-18T16:32:50;4.00;;;3.60;;
44228;SDS011;29904;51.058;5.378;2022-08-18T16:35:18;4.13;;;3.72;;
44228;SDS011;29904;51.058;5.378;2022-08-18T16:37:46;5.25;;;3.38;;
44228;SDS011;29904;51.058;5.378;2022-08-18T16:40:14;3.97;;;3.58;;
44228;SDS011;29904;51.058;5.378;2022-08-18T16:42:41;4.07;;;3.38;;
44228;SDS011;29904;51.058;5.378;2022-08-18T16:45:07;4.82;;;4.00;;
44228;SDS011;29904;51.058;5.378;2022-08-18T16:47:33;4.07;;;3.67;;
44228;SDS011;29904;51.058;5.378;2022-08-18T16:50:11;4.10;;;3.70;;
44228;SDS011;29904;51.058;5.378;2022-08-18T16:52:39;4.20;;;3.55;;
44228;SDS011;29904;51.058;5.378;2022-08-18T16:55:08;4.37;;;3.80;;
44228;SDS011;29904;51.058;5.378;2022-08-18T16:57:39;4.05;;;3.65;;
44228;SDS011;29904;51.058;5.378;2022-08-18T17:00:25;5.47;;;4.07;;
44228;SDS011;29904;51.058;5.378;2022-08-18T17:03:12;4.53;;;3.70;;
44228;SDS011;29904;51.058;5.378;2022-08-18T17:08:32;4.97;;;4.47;;
44228;SDS011;29904;51.058;5.378;2022-08-18T17:11:00;4.93;;;3.95;;
44228;SDS011;29904;51.058;5.378;2022-08-18T17:13:27;6.00;;;4.47;;
44228;SDS011;29904;51.058;5.378;2022-08-18T17:15:54;4.10;;;3.70;;
44228;SDS011;29904;51.058;5.378;2022-08-18T17:18:20;4.55;;;4.07;;
44228;SDS011;29904;51.058;5.378;2022-08-18T17:20:46;5.20;;;4.70;;
44228;SDS011;29904;51.058;5.378;2022-08-18T17:23:12;5.20;;;4.40;;
44228;SDS011;29904;51.058;5.378;2022-08-18T17:25:38;4.47;;;4.07;;
44228;SDS011;29904;51.058;5.378;2022-08-18T17:28:04;5.18;;;4.70;;
44228;SDS011;29904;51.058;5.378;2022-08-18T17:30:31;5.38;;;4.80;;
44228;SDS011;29904;51.058;5.378;2022-08-18T17:35:49;5.25;;;4.75;;